Terminal Aerodrome Forecast
Issued by NWS

Home | Current Version | Previous Version | Text Only | Print | Product List | Glossary On
Versions: 1 2 3 4 5 6 7 8 9 10 11 12 13 14 15
000
FTUS44 KLIX 251100 RRA
TAFMSY
TAF
KMSY 251140Z 2512/2612 18007KT P6SM FEW250
     FM251700 24013G20KT P6SM FEW250
     FM260100 29014G22KT P6SM FEW250
     FM260300 31011KT P6SM FEW250=

USA.gov is the U.S. government's official web portal to all federal, state and local government web resources and services.